sensor_id;sensor_type;location;lat;lon;timestamp;temperature;humidity
44695;DHT22;32845;59.422;17.930;2023-02-01T00:04:04;-4.20;99.90
44695;DHT22;32845;59.422;17.930;2023-02-01T00:08:35;-4.10;99.90
44695;DHT22;32845;59.422;17.930;2023-02-01T00:13:05;-4.00;99.90
44695;DHT22;32845;59.422;17.930;2023-02-01T00:17:36;-4.00;99.90
44695;DHT22;32845;59.422;17.930;2023-02-01T00:22:07;-4.00;99.90
44695;DHT22;32845;59.422;17.930;2023-02-01T00:26:43;-3.90;99.90
44695;DHT22;32845;59.422;17.930;2023-02-01T00:31:14;-3.80;99.90
44695;DHT22;32845;59.422;17.930;2023-02-01T00:35:45;-3.70;99.90
44695;DHT22;32845;59.422;17.930;2023-02-01T00:40:16;-3.70;99.90
44695;DHT22;32845;59.422;17.930;2023-02-01T00:44:46;-3.70;99.90
44695;DHT22;32845;59.422;17.930;2023-02-01T00:49:17;-3.70;99.90
44695;DHT22;32845;59.422;17.930;2023-02-01T00:53:48;-3.60;99.90
44695;DHT22;32845;59.422;17.930;2023-02-01T00:58:19;-3.60;99.90
44695;DHT22;32845;59.422;17.930;2023-02-01T01:02:50;-3.60;99.90
44695;DHT22;32845;59.422;17.930;2023-02-01T01:07:20;-3.60;99.90
44695;DHT22;32845;59.422;17.930;2023-02-01T01:11:51;-3.60;99.90
44695;DHT22;32845;59.422;17.930;2023-02-01T01:16:25;-3.50;99.90
44695;DHT22;32845;59.422;17.930;2023-02-01T01:20:57;-3.50;99.90
44695;DHT22;32845;59.422;17.930;2023-02-01T01:25:27;-3.50;99.90
44695;DHT22;32845;59.422;17.930;2023-02-01T01:29:58;-3.40;99.90
44695;DHT22;32845;59.422;17.930;2023-02-01T01:34:29;-3.30;99.90
44695;DHT22;32845;59.422;17.930;2023-02-01T01:38:59;-3.20;99.90
44695;DHT22;32845;59.422;17.930;2023-02-01T01:43:53;-3.20;99.90
44695;DHT22;32845;59.422;17.930;2023-02-01T01:48:27;-3.10;99.90
44695;DHT22;32845;59.422;17.930;2023-02-01T01:53:02;-3.10;99.90
44695;DHT22;32845;59.422;17.930;2023-02-01T01:57:38;-3.10;99.90
44695;DHT22;32845;59.422;17.930;2023-02-01T02:02:10;-3.10;99.90
44695;DHT22;32845;59.422;17.930;2023-02-01T02:07:09;-3.00;99.90
44695;DHT22;32845;59.422;17.930;2023-02-01T02:11:42;-3.00;99.90
44695;DHT22;32845;59.422;17.930;2023-02-01T02:16:39;-2.90;99.90
44695;DHT22;32845;59.422;17.930;2023-02-01T02:35:48;-2.80;99.90
44695;DHT22;32845;59.422;17.930;2023-02-01T02:41:07;-2.80;99.90
44695;DHT22;32845;59.422;17.930;2023-02-01T02:56:01;-2.60;99.90
44695;DHT22;32845;59.422;17.930;2023-02-01T03:00:53;-2.60;99.90
44695;DHT22;32845;59.422;17.930;2023-02-01T03:05:45;-2.50;99.90
44695;DHT22;32845;59.422;17.930;2023-02-01T03:10:24;-2.50;99.90
44695;DHT22;32845;59.422;17.930;2023-02-01T03:15:07;-2.50;99.90
44695;DHT22;32845;59.422;17.930;2023-02-01T03:19:45;-2.40;99.90
44695;DHT22;32845;59.422;17.930;2023-02-01T03:24:27;-2.40;99.90
44695;DHT22;32845;59.422;17.930;2023-02-01T03:29:11;-2.40;99.90
44695;DHT22;32845;59.422;17.930;2023-02-01T03:33:43;-2.30;99.90
44695;DHT22;32845;59.422;17.930;2023-02-01T03:38:30;-2.30;99.90
44695;DHT22;32845;59.422;17.930;2023-02-01T03:43:05;-2.20;99.90
44695;DHT22;32845;59.422;17.930;2023-02-01T03:47:41;-2.30;99.90
44695;DHT22;32845;59.422;17.930;2023-02-01T03:52:16;-2.20;99.90
44695;DHT22;32845;59.422;17.930;2023-02-01T03:56:50;-2.20;99.90
44695;DHT22;32845;59.422;17.930;2023-02-01T04:01:22;-2.20;99.90
44695;DHT22;32845;59.422;17.930;2023-02-01T04:05:53;-2.20;99.90
44695;DHT22;32845;59.422;17.930;2023-02-01T04:10:24;-2.20;99.90
44695;DHT22;32845;59.422;17.930;2023-02-01T04:14:55;-2.10;99.90
44695;DHT22;32845;59.422;17.930;2023-02-01T04:19:26;-2.10;99.90
44695;DHT22;32845;59.422;17.930;2023-02-01T04:23:56;-2.10;99.90
44695;DHT22;32845;59.422;17.930;2023-02-01T04:28:27;-2.20;99.90
44695;DHT22;32845;59.422;17.930;2023-02-01T04:32:58;-2.20;99.90
44695;DHT22;32845;59.422;17.930;2023-02-01T04:37:29;-2.20;99.90
44695;DHT22;32845;59.422;17.930;2023-02-01T04:42:00;-2.20;99.90
44695;DHT22;32845;59.422;17.930;2023-02-01T04:46:31;-2.20;99.90
44695;DHT22;32845;59.422;17.930;2023-02-01T04:51:01;-2.10;99.90
44695;DHT22;32845;59.422;17.930;2023-02-01T04:55:32;-2.10;99.90
44695;DHT22;32845;59.422;17.930;2023-02-01T05:00:03;-2.00;99.90
44695;DHT22;32845;59.422;17.930;2023-02-01T05:04:34;-2.00;99.90
44695;DHT22;32845;59.422;17.930;2023-02-01T05:09:05;-2.00;99.90
44695;DHT22;32845;59.422;17.930;2023-02-01T05:13:36;-1.90;99.90
44695;DHT22;32845;59.422;17.930;2023-02-01T05:18:18;-1.90;99.90
44695;DHT22;32845;59.422;17.930;2023-02-01T05:22:49;-1.90;99.90
44695;DHT22;32845;59.422;17.930;2023-02-01T05:27:20;-1.80;99.90
44695;DHT22;32845;59.422;17.930;2023-02-01T05:31:50;-1.80;99.90
44695;DHT22;32845;59.422;17.930;2023-02-01T05:36:21;-1.70;99.90
44695;DHT22;32845;59.422;17.930;2023-02-01T05:40:52;-1.70;99.90
44695;DHT22;32845;59.422;17.930;2023-02-01T05:45:22;-1.60;99.90
44695;DHT22;32845;59.422;17.930;2023-02-01T05:49:53;-1.60;99.90
44695;DHT22;32845;59.422;17.930;2023-02-01T05:54:24;-1.60;99.90
44695;DHT22;32845;59.422;17.930;2023-02-01T05:58:55;-1.50;99.90
44695;DHT22;32845;59.422;17.930;2023-02-01T06:03:25;-1.40;99.90
44695;DHT22;32845;59.422;17.930;2023-02-01T06:07:56;-1.40;99.90
44695;DHT22;32845;59.422;17.930;2023-02-01T06:12:27;-1.30;99.90
44695;DHT22;32845;59.422;17.930;2023-02-01T06:16:58;-1.30;99.90
44695;DHT22;32845;59.422;17.930;2023-02-01T06:21:29;-1.30;99.90
44695;DHT22;32845;59.422;17.930;2023-02-01T06:26:05;-1.20;99.90
44695;DHT22;32845;59.422;17.930;2023-02-01T06:30:36;-1.20;99.90
44695;DHT22;32845;59.422;17.930;2023-02-01T06:35:08;-1.10;99.90
44695;DHT22;32845;59.422;17.930;2023-02-01T06:39:41;-1.10;99.90
44695;DHT22;32845;59.422;17.930;2023-02-01T06:44:12;-1.00;99.90
44695;DHT22;32845;59.422;17.930;2023-02-01T06:48:43;-1.00;99.90
44695;DHT22;32845;59.422;17.930;2023-02-01T06:53:13;-1.00;99.90
44695;DHT22;32845;59.422;17.930;2023-02-01T06:57:44;-1.00;99.90
44695;DHT22;32845;59.422;17.930;2023-02-01T07:02:15;-1.00;99.90
44695;DHT22;32845;59.422;17.930;2023-02-01T07:06:45;-0.90;99.90
44695;DHT22;32845;59.422;17.930;2023-02-01T07:11:17;-0.90;99.90
44695;DHT22;32845;59.422;17.930;2023-02-01T07:15:48;-0.90;99.90
44695;DHT22;32845;59.422;17.930;2023-02-01T07:20:19;-0.90;99.90
44695;DHT22;32845;59.422;17.930;2023-02-01T07:24:50;-0.80;99.90
44695;DHT22;32845;59.422;17.930;2023-02-01T07:29:20;-0.80;99.90
44695;DHT22;32845;59.422;17.930;2023-02-01T07:33:51;-0.80;99.90
44695;DHT22;32845;59.422;17.930;2023-02-01T07:38:22;-0.80;99.90
44695;DHT22;32845;59.422;17.930;2023-02-01T07:42:57;-0.80;99.90
44695;DHT22;32845;59.422;17.930;2023-02-01T07:47:28;-0.70;99.90
44695;DHT22;32845;59.422;17.930;2023-02-01T07:51:59;-0.70;99.90
44695;DHT22;32845;59.422;17.930;2023-02-01T07:56:29;-0.70;99.90
44695;DHT22;32845;59.422;17.930;2023-02-01T08:01:00;-0.60;99.90
44695;DHT22;32845;59.422;17.930;2023-02-01T08:05:54;-0.50;99.90
44695;DHT22;32845;59.422;17.930;2023-02-01T08:10:25;-0.50;99.90
44695;DHT22;32845;59.422;17.930;2023-02-01T08:14:55;-0.40;99.90
44695;DHT22;32845;59.422;17.930;2023-02-01T08:19:26;-0.40;99.90
44695;DHT22;32845;59.422;17.930;2023-02-01T08:23:57;-0.30;99.90
44695;DHT22;32845;59.422;17.930;2023-02-01T08:28:28;-0.30;99.90
44695;DHT22;32845;59.422;17.930;2023-02-01T08:32:59;-0.20;99.90
44695;DHT22;32845;59.422;17.930;2023-02-01T08:37:29;-0.20;99.90
44695;DHT22;32845;59.422;17.930;2023-02-01T08:42:00;-0.20;99.90
44695;DHT22;32845;59.422;17.930;2023-02-01T08:47:00;-0.10;99.90
44695;DHT22;32845;59.422;17.930;2023-02-01T08:51:31;-0.10;99.90
44695;DHT22;32845;59.422;17.930;2023-02-01T08:56:02;-0.10;99.90
44695;DHT22;32845;59.422;17.930;2023-02-01T09:00:33;0.00;99.90
44695;DHT22;32845;59.422;17.930;2023-02-01T09:05:04;0.00;99.90
44695;DHT22;32845;59.422;17.930;2023-02-01T09:09:36;0.00;99.90
44695;DHT22;32845;59.422;17.930;2023-02-01T09:14:07;0.00;99.90
44695;DHT22;32845;59.422;17.930;2023-02-01T09:18:37;0.10;99.90
44695;DHT22;32845;59.422;17.930;2023-02-01T09:23:08;0.10;99.90
44695;DHT22;32845;59.422;17.930;2023-02-01T09:27:39;0.20;99.90
44695;DHT22;32845;59.422;17.930;2023-02-01T09:32:09;0.30;99.90
44695;DHT22;32845;59.422;17.930;2023-02-01T09:36:40;0.30;99.90
44695;DHT22;32845;59.422;17.930;2023-02-01T09:41:54;0.40;99.90
44695;DHT22;32845;59.422;17.930;2023-02-01T09:46:24;0.40;99.90
44695;DHT22;32845;59.422;17.930;2023-02-01T09:50:57;0.50;99.90
44695;DHT22;32845;59.422;17.930;2023-02-01T09:55:47;0.50;99.90
44695;DHT22;32845;59.422;17.930;2023-02-01T10:00:24;0.50;99.90
44695;DHT22;32845;59.422;17.930;2023-02-01T10:04:58;0.60;99.90
44695;DHT22;32845;59.422;17.930;2023-02-01T10:28:34;0.80;99.90
44695;DHT22;32845;59.422;17.930;2023-02-01T10:33:19;0.80;99.90
44695;DHT22;32845;59.422;17.930;2023-02-01T10:37:52;0.80;99.90
44695;DHT22;32845;59.422;17.930;2023-02-01T10:42:27;0.70;99.90
44695;DHT22;32845;59.422;17.930;2023-02-01T10:46:58;0.80;99.90
44695;DHT22;32845;59.422;17.930;2023-02-01T10:52:17;0.70;99.90
44695;DHT22;32845;59.422;17.930;2023-02-01T10:56:47;0.70;99.90
44695;DHT22;32845;59.422;17.930;2023-02-01T11:01:30;0.70;99.90
44695;DHT22;32845;59.422;17.930;2023-02-01T11:06:21;0.70;99.90
44695;DHT22;32845;59.422;17.930;2023-02-01T11:11:00;0.70;99.90
44695;DHT22;32845;59.422;17.930;2023-02-01T11:15:31;0.70;99.90
44695;DHT22;32845;59.422;17.930;2023-02-01T11:20:49;0.80;99.90
44695;DHT22;32845;59.422;17.930;2023-02-01T11:24:56;0.80;99.90
44695;DHT22;32845;59.422;17.930;2023-02-01T11:30:04;0.80;99.90
44695;DHT22;32845;59.422;17.930;2023-02-01T11:34:38;0.90;99.90
44695;DHT22;32845;59.422;17.930;2023-02-01T11:43:58;0.80;99.90
44695;DHT22;32845;59.422;17.930;2023-02-01T11:48:31;0.90;99.90
44695;DHT22;32845;59.422;17.930;2023-02-01T12:03:05;0.80;99.90
44695;DHT22;32845;59.422;17.930;2023-02-01T12:12:24;0.90;99.90
44695;DHT22;32845;59.422;17.930;2023-02-01T12:22:06;0.90;99.90
44695;DHT22;32845;59.422;17.930;2023-02-01T12:31:49;0.90;99.90
44695;DHT22;32845;59.422;17.930;2023-02-01T12:46:16;1.30;99.90
44695;DHT22;32845;59.422;17.930;2023-02-01T12:50:52;1.50;99.90
44695;DHT22;32845;59.422;17.930;2023-02-01T13:00:29;1.60;99.90
44695;DHT22;32845;59.422;17.930;2023-02-01T13:05:22;1.50;99.90
44695;DHT22;32845;59.422;17.930;2023-02-01T13:10:22;1.30;99.90
44695;DHT22;32845;59.422;17.930;2023-02-01T13:14:58;1.30;99.90
44695;DHT22;32845;59.422;17.930;2023-02-01T13:24:21;1.20;99.90
44695;DHT22;32845;59.422;17.930;2023-02-01T13:29:05;1.10;99.90
44695;DHT22;32845;59.422;17.930;2023-02-01T13:43:39;0.90;99.90
44695;DHT22;32845;59.422;17.930;2023-02-01T13:48:21;0.90;99.90
44695;DHT22;32845;59.422;17.930;2023-02-01T13:53:16;0.80;99.90
44695;DHT22;32845;59.422;17.930;2023-02-01T13:57:49;0.70;99.90
44695;DHT22;32845;59.422;17.930;2023-02-01T14:07:21;0.60;99.90
44695;DHT22;32845;59.422;17.930;2023-02-01T14:11:53;0.50;99.90
44695;DHT22;32845;59.422;17.930;2023-02-01T14:16:24;0.40;99.90
44695;DHT22;32845;59.422;17.930;2023-02-01T14:26:04;0.40;99.90
44695;DHT22;32845;59.422;17.930;2023-02-01T14:30:42;0.30;99.90
44695;DHT22;32845;59.422;17.930;2023-02-01T14:35:23;0.20;99.90
44695;DHT22;32845;59.422;17.930;2023-02-01T14:40:01;0.20;99.90
44695;DHT22;32845;59.422;17.930;2023-02-01T14:44:34;0.10;99.90
44695;DHT22;32845;59.422;17.930;2023-02-01T14:49:06;0.10;99.90
44695;DHT22;32845;59.422;17.930;2023-02-01T14:53:37;0.10;99.90
44695;DHT22;32845;59.422;17.930;2023-02-01T15:08:15;0.00;99.90
44695;DHT22;32845;59.422;17.930;2023-02-01T15:12:47;0.00;99.90
44695;DHT22;32845;59.422;17.930;2023-02-01T15:17:25;0.00;99.90
44695;DHT22;32845;59.422;17.930;2023-02-01T15:21:57;0.00;99.90
44695;DHT22;32845;59.422;17.930;2023-02-01T15:26:30;0.00;99.90
44695;DHT22;32845;59.422;17.930;2023-02-01T15:31:03;0.00;99.90
44695;DHT22;32845;59.422;17.930;2023-02-01T15:35:37;-0.10;99.90
44695;DHT22;32845;59.422;17.930;2023-02-01T15:44:45;-0.10;99.90
44695;DHT22;32845;59.422;17.930;2023-02-01T15:49:24;-0.10;99.90
44695;DHT22;32845;59.422;17.930;2023-02-01T15:54:05;-0.10;99.90
44695;DHT22;32845;59.422;17.930;2023-02-01T15:58:36;-0.10;99.90
44695;DHT22;32845;59.422;17.930;2023-02-01T16:03:34;-0.10;99.90
44695;DHT22;32845;59.422;17.930;2023-02-01T16:08:13;-0.10;99.90
44695;DHT22;32845;59.422;17.930;2023-02-01T16:12:46;-0.20;99.90
44695;DHT22;32845;59.422;17.930;2023-02-01T16:17:17;-0.10;99.90
44695;DHT22;32845;59.422;17.930;2023-02-01T16:21:48;-0.20;99.90
44695;DHT22;32845;59.422;17.930;2023-02-01T16:26:19;-0.20;99.90
44695;DHT22;32845;59.422;17.930;2023-02-01T16:30:50;-0.20;99.90
44695;DHT22;32845;59.422;17.930;2023-02-01T16:35:36;-0.10;99.90
44695;DHT22;32845;59.422;17.930;2023-02-01T16:40:16;-0.10;99.90
44695;DHT22;32845;59.422;17.930;2023-02-01T16:44:47;-0.10;99.90
44695;DHT22;32845;59.422;17.930;2023-02-01T16:49:23;-0.10;99.90
44695;DHT22;32845;59.422;17.930;2023-02-01T16:53:54;-0.10;99.90
44695;DHT22;32845;59.422;17.930;2023-02-01T16:58:26;-0.20;99.90
44695;DHT22;32845;59.422;17.930;2023-02-01T17:02:57;-0.10;99.90
44695;DHT22;32845;59.422;17.930;2023-02-01T17:07:28;-0.20;99.90
44695;DHT22;32845;59.422;17.930;2023-02-01T17:11:59;-0.20;99.90
44695;DHT22;32845;59.422;17.930;2023-02-01T17:16:31;-0.20;99.90
44695;DHT22;32845;59.422;17.930;2023-02-01T17:21:03;-0.20;99.90
44695;DHT22;32845;59.422;17.930;2023-02-01T17:25:35;-0.20;99.90
44695;DHT22;32845;59.422;17.930;2023-02-01T17:30:07;-0.20;99.90
44695;DHT22;32845;59.422;17.930;2023-02-01T17:34:39;-0.20;99.90
44695;DHT22;32845;59.422;17.930;2023-02-01T17:39:10;-0.20;99.90
44695;DHT22;32845;59.422;17.930;2023-02-01T17:44:02;-0.30;99.90
44695;DHT22;32845;59.422;17.930;2023-02-01T17:48:33;-0.30;99.90
44695;DHT22;32845;59.422;17.930;2023-02-01T17:53:04;-0.30;99.90
44695;DHT22;32845;59.422;17.930;2023-02-01T17:57:38;-0.40;99.90
44695;DHT22;32845;59.422;17.930;2023-02-01T18:02:20;-0.40;99.90
44695;DHT22;32845;59.422;17.930;2023-02-01T18:06:51;-0.50;99.90
44695;DHT22;32845;59.422;17.930;2023-02-01T18:11:23;-0.50;99.90
44695;DHT22;32845;59.422;17.930;2023-02-01T18:15:55;-0.50;99.90
44695;DHT22;32845;59.422;17.930;2023-02-01T18:20:26;-0.50;99.90
44695;DHT22;32845;59.422;17.930;2023-02-01T18:24:57;-0.50;99.90
44695;DHT22;32845;59.422;17.930;2023-02-01T18:29:28;-0.50;99.90
44695;DHT22;32845;59.422;17.930;2023-02-01T18:33:59;-0.50;99.90
44695;DHT22;32845;59.422;17.930;2023-02-01T18:38:29;-0.50;99.90
44695;DHT22;32845;59.422;17.930;2023-02-01T18:43:00;-0.50;99.90
44695;DHT22;32845;59.422;17.930;2023-02-01T18:47:32;-0.60;99.90
44695;DHT22;32845;59.422;17.930;2023-02-01T18:52:03;-0.60;99.90
44695;DHT22;32845;59.422;17.930;2023-02-01T18:56:35;-0.60;99.90
44695;DHT22;32845;59.422;17.930;2023-02-01T19:01:08;-0.70;99.90
44695;DHT22;32845;59.422;17.930;2023-02-01T19:05:39;-0.70;99.90
44695;DHT22;32845;59.422;17.930;2023-02-01T19:10:14;-0.70;99.90
44695;DHT22;32845;59.422;17.930;2023-02-01T19:14:44;-0.70;99.90
44695;DHT22;32845;59.422;17.930;2023-02-01T19:19:15;-0.70;99.90
44695;DHT22;32845;59.422;17.930;2023-02-01T19:23:46;-0.70;99.90
44695;DHT22;32845;59.422;17.930;2023-02-01T19:28:17;-0.70;99.90
44695;DHT22;32845;59.422;17.930;2023-02-01T19:32:48;-0.70;99.90
44695;DHT22;32845;59.422;17.930;2023-02-01T19:37:18;-0.70;99.90
44695;DHT22;32845;59.422;17.930;2023-02-01T19:41:50;-0.70;99.90
44695;DHT22;32845;59.422;17.930;2023-02-01T19:46:21;-0.60;99.90
44695;DHT22;32845;59.422;17.930;2023-02-01T19:50:51;-0.70;99.90
44695;DHT22;32845;59.422;17.930;2023-02-01T19:55:23;-0.60;99.90
44695;DHT22;32845;59.422;17.930;2023-02-01T19:59:54;-0.60;99.90
44695;DHT22;32845;59.422;17.930;2023-02-01T20:04:25;-0.60;99.90
44695;DHT22;32845;59.422;17.930;2023-02-01T20:08:56;-0.60;99.90
44695;DHT22;32845;59.422;17.930;2023-02-01T20:13:27;-0.60;99.90
44695;DHT22;32845;59.422;17.930;2023-02-01T20:17:58;-0.60;99.90
44695;DHT22;32845;59.422;17.930;2023-02-01T20:22:29;-0.60;99.90
44695;DHT22;32845;59.422;17.930;2023-02-01T20:27:00;-0.60;99.90
44695;DHT22;32845;59.422;17.930;2023-02-01T20:31:31;-0.50;99.90
44695;DHT22;32845;59.422;17.930;2023-02-01T20:36:03;-0.60;99.90
44695;DHT22;32845;59.422;17.930;2023-02-01T20:40:36;-0.50;99.90
44695;DHT22;32845;59.422;17.930;2023-02-01T20:45:07;-0.50;99.90
44695;DHT22;32845;59.422;17.930;2023-02-01T20:49:38;-0.50;99.90
44695;DHT22;32845;59.422;17.930;2023-02-01T20:54:10;-0.50;99.90
44695;DHT22;32845;59.422;17.930;2023-02-01T20:58:41;-0.50;99.90
44695;DHT22;32845;59.422;17.930;2023-02-01T21:03:13;-0.50;99.90
44695;DHT22;32845;59.422;17.930;2023-02-01T21:07:44;-0.50;99.90
44695;DHT22;32845;59.422;17.930;2023-02-01T21:12:15;-0.50;99.90
44695;DHT22;32845;59.422;17.930;2023-02-01T21:16:47;-0.50;99.90
44695;DHT22;32845;59.422;17.930;2023-02-01T21:21:18;-0.50;99.90
44695;DHT22;32845;59.422;17.930;2023-02-01T21:25:48;-0.50;99.90
44695;DHT22;32845;59.422;17.930;2023-02-01T21:30:19;-0.50;99.90
44695;DHT22;32845;59.422;17.930;2023-02-01T21:34:50;-0.50;99.90
44695;DHT22;32845;59.422;17.930;2023-02-01T21:39:22;-0.40;99.90
44695;DHT22;32845;59.422;17.930;2023-02-01T21:43:52;-0.50;99.90
44695;DHT22;32845;59.422;17.930;2023-02-01T21:48:23;-0.40;99.90
44695;DHT22;32845;59.422;17.930;2023-02-01T21:52:53;-0.40;99.90
44695;DHT22;32845;59.422;17.930;2023-02-01T21:57:26;-0.40;99.90
44695;DHT22;32845;59.422;17.930;2023-02-01T22:01:57;-0.40;99.90
44695;DHT22;32845;59.422;17.930;2023-02-01T22:06:30;-0.40;99.90
44695;DHT22;32845;59.422;17.930;2023-02-01T22:11:01;-0.40;99.90
44695;DHT22;32845;59.422;17.930;2023-02-01T22:15:31;-0.40;99.90
44695;DHT22;32845;59.422;17.930;2023-02-01T22:20:03;-0.40;99.90
44695;DHT22;32845;59.422;17.930;2023-02-01T22:24:34;-0.40;99.90
44695;DHT22;32845;59.422;17.930;2023-02-01T22:29:06;-0.40;99.90
44695;DHT22;32845;59.422;17.930;2023-02-01T22:33:37;-0.50;99.90
44695;DHT22;32845;59.422;17.930;2023-02-01T22:38:08;-0.50;99.90
44695;DHT22;32845;59.422;17.930;2023-02-01T22:42:39;-0.40;99.90
44695;DHT22;32845;59.422;17.930;2023-02-01T22:47:09;-0.50;99.90
44695;DHT22;32845;59.422;17.930;2023-02-01T22:51:40;-0.50;99.90
44695;DHT22;32845;59.422;17.930;2023-02-01T22:56:12;-0.50;99.90
44695;DHT22;32845;59.422;17.930;2023-02-01T23:00:44;-0.50;99.90
44695;DHT22;32845;59.422;17.930;2023-02-01T23:05:15;-0.50;99.90
44695;DHT22;32845;59.422;17.930;2023-02-01T23:09:45;-0.50;99.90
44695;DHT22;32845;59.422;17.930;2023-02-01T23:14:17;-0.50;99.90
44695;DHT22;32845;59.422;17.930;2023-02-01T23:18:48;-0.50;99.90
44695;DHT22;32845;59.422;17.930;2023-02-01T23:23:18;-0.50;99.90
44695;DHT22;32845;59.422;17.930;2023-02-01T23:27:49;-0.50;99.90
44695;DHT22;32845;59.422;17.930;2023-02-01T23:32:20;-0.50;99.90
44695;DHT22;32845;59.422;17.930;2023-02-01T23:36:50;-0.50;99.90
44695;DHT22;32845;59.422;17.930;2023-02-01T23:41:22;-0.50;99.90
44695;DHT22;32845;59.422;17.930;2023-02-01T23:45:57;-0.60;99.90
44695;DHT22;32845;59.422;17.930;2023-02-01T23:50:28;-0.60;99.90
44695;DHT22;32845;59.422;17.930;2023-02-01T23:54:58;-0.60;99.90
44695;DHT22;32845;59.422;17.930;2023-02-01T23:59:29;-0.60;99.90
